sensor_id;sensor_type;location;lat;lon;timestamp;P1;durP1;ratioP1;P2;durP2;ratioP2
45784;SDS011;31489;51.404;5.474;2023-03-23T00:01:05;2.95;;;2.30;;
45784;SDS011;31489;51.404;5.474;2023-03-23T00:03:32;6.25;;;2.55;;
45784;SDS011;31489;51.404;5.474;2023-03-23T00:05:58;3.22;;;2.47;;
45784;SDS011;31489;51.404;5.474;2023-03-23T00:08:29;3.55;;;2.30;;
45784;SDS011;31489;51.404;5.474;2023-03-23T00:10:56;3.13;;;2.17;;
45784;SDS011;31489;51.404;5.474;2023-03-23T00:13:25;6.45;;;2.28;;
45784;SDS011;31489;51.404;5.474;2023-03-23T00:15:52;4.25;;;2.45;;
45784;SDS011;31489;51.404;5.474;2023-03-23T00:18:18;3.40;;;2.00;;
45784;SDS011;31489;51.404;5.474;2023-03-23T00:20:51;2.70;;;2.20;;
45784;SDS011;31489;51.404;5.474;2023-03-23T00:23:19;3.45;;;2.10;;
45784;SDS011;31489;51.404;5.474;2023-03-23T00:25:48;3.25;;;2.28;;
45784;SDS011;31489;51.404;5.474;2023-03-23T00:28:15;4.65;;;2.30;;
45784;SDS011;31489;51.404;5.474;2023-03-23T00:30:41;3.63;;;2.25;;
45784;SDS011;31489;51.404;5.474;2023-03-23T00:33:09;3.67;;;2.38;;
45784;SDS011;31489;51.404;5.474;2023-03-23T00:35:39;2.88;;;2.30;;
45784;SDS011;31489;51.404;5.474;2023-03-23T00:38:05;5.40;;;2.38;;
45784;SDS011;31489;51.404;5.474;2023-03-23T00:40:31;6.63;;;2.88;;
45784;SDS011;31489;51.404;5.474;2023-03-23T00:43:00;4.10;;;2.20;;
45784;SDS011;31489;51.404;5.474;2023-03-23T00:45:28;2.83;;;2.17;;
45784;SDS011;31489;51.404;5.474;2023-03-23T00:47:54;3.30;;;2.10;;
45784;SDS011;31489;51.404;5.474;2023-03-23T00:50:19;2.42;;;1.90;;
45784;SDS011;31489;51.404;5.474;2023-03-23T00:52:45;4.38;;;2.10;;
45784;SDS011;31489;51.404;5.474;2023-03-23T00:55:11;3.88;;;2.20;;
45784;SDS011;31489;51.404;5.474;2023-03-23T00:57:36;5.20;;;2.40;;
45784;SDS011;31489;51.404;5.474;2023-03-23T01:00:02;6.00;;;2.45;;
45784;SDS011;31489;51.404;5.474;2023-03-23T01:02:34;4.97;;;3.00;;
45784;SDS011;31489;51.404;5.474;2023-03-23T01:05:00;4.78;;;2.33;;
45784;SDS011;31489;51.404;5.474;2023-03-23T01:07:28;3.65;;;2.20;;
45784;SDS011;31489;51.404;5.474;2023-03-23T01:09:56;3.30;;;2.20;;
45784;SDS011;31489;51.404;5.474;2023-03-23T01:12:22;3.20;;;2.20;;
45784;SDS011;31489;51.404;5.474;2023-03-23T01:14:49;4.70;;;2.40;;
45784;SDS011;31489;51.404;5.474;2023-03-23T01:17:16;2.50;;;1.98;;
45784;SDS011;31489;51.404;5.474;2023-03-23T01:19:41;4.10;;;2.72;;
45784;SDS011;31489;51.404;5.474;2023-03-23T01:22:07;3.80;;;2.30;;
45784;SDS011;31489;51.404;5.474;2023-03-23T01:24:32;2.42;;;2.22;;
45784;SDS011;31489;51.404;5.474;2023-03-23T01:26:58;5.10;;;2.30;;
45784;SDS011;31489;51.404;5.474;2023-03-23T01:29:31;3.25;;;2.30;;
45784;SDS011;31489;51.404;5.474;2023-03-23T01:31:59;4.10;;;2.33;;
45784;SDS011;31489;51.404;5.474;2023-03-23T01:34:25;6.05;;;2.35;;
45784;SDS011;31489;51.404;5.474;2023-03-23T01:36:51;4.03;;;2.47;;
45784;SDS011;31489;51.404;5.474;2023-03-23T01:39:17;4.47;;;2.20;;
45784;SDS011;31489;51.404;5.474;2023-03-23T01:41:42;3.35;;;2.42;;
45784;SDS011;31489;51.404;5.474;2023-03-23T01:45:17;4.07;;;2.58;;
45784;SDS011;31489;51.404;5.474;2023-03-23T01:46:56;2.58;;;2.20;;
45784;SDS011;31489;51.404;5.474;2023-03-23T01:49:24;4.70;;;2.42;;
45784;SDS011;31489;51.404;5.474;2023-03-23T01:52:05;3.17;;;2.30;;
45784;SDS011;31489;51.404;5.474;2023-03-23T01:54:34;2.75;;;2.22;;
45784;SDS011;31489;51.404;5.474;2023-03-23T01:57:11;3.80;;;2.47;;
45784;SDS011;31489;51.404;5.474;2023-03-23T01:59:40;4.03;;;2.17;;
45784;SDS011;31489;51.404;5.474;2023-03-23T02:02:10;2.70;;;2.20;;
45784;SDS011;31489;51.404;5.474;2023-03-23T02:04:36;3.10;;;2.78;;
45784;SDS011;31489;51.404;5.474;2023-03-23T02:07:04;3.60;;;2.42;;
45784;SDS011;31489;51.404;5.474;2023-03-23T02:09:29;5.72;;;2.83;;
45784;SDS011;31489;51.404;5.474;2023-03-23T02:11:55;2.75;;;2.08;;
45784;SDS011;31489;51.404;5.474;2023-03-23T02:14:22;4.47;;;2.42;;
45784;SDS011;31489;51.404;5.474;2023-03-23T02:17:02;2.63;;;2.25;;
45784;SDS011;31489;51.404;5.474;2023-03-23T02:28:10;7.80;;;2.20;;
45784;SDS011;31489;51.404;5.474;2023-03-23T02:33:46;3.35;;;2.53;;
45784;SDS011;31489;51.404;5.474;2023-03-23T02:42:11;5.38;;;2.85;;
45784;SDS011;31489;51.404;5.474;2023-03-23T02:44:29;2.90;;;2.40;;
45784;SDS011;31489;51.404;5.474;2023-03-23T02:46:57;4.70;;;2.55;;
45784;SDS011;31489;51.404;5.474;2023-03-23T02:49:26;4.28;;;2.70;;
45784;SDS011;31489;51.404;5.474;2023-03-23T02:51:55;2.95;;;2.60;;
45784;SDS011;31489;51.404;5.474;2023-03-23T02:54:23;3.47;;;2.35;;
45784;SDS011;31489;51.404;5.474;2023-03-23T02:56:51;3.58;;;2.28;;
45784;SDS011;31489;51.404;5.474;2023-03-23T02:59:18;3.72;;;2.70;;
45784;SDS011;31489;51.404;5.474;2023-03-23T03:01:52;5.40;;;2.95;;
45784;SDS011;31489;51.404;5.474;2023-03-23T03:04:37;6.25;;;2.50;;
45784;SDS011;31489;51.404;5.474;2023-03-23T03:12:02;2.47;;;2.28;;
45784;SDS011;31489;51.404;5.474;2023-03-23T03:14:37;4.00;;;2.63;;
45784;SDS011;31489;51.404;5.474;2023-03-23T03:19:37;4.32;;;2.88;;
45784;SDS011;31489;51.404;5.474;2023-03-23T03:22:05;3.50;;;2.47;;
45784;SDS011;31489;51.404;5.474;2023-03-23T03:24:32;2.97;;;2.47;;
45784;SDS011;31489;51.404;5.474;2023-03-23T03:27:02;3.00;;;2.70;;
45784;SDS011;31489;51.404;5.474;2023-03-23T03:29:36;5.57;;;2.60;;
45784;SDS011;31489;51.404;5.474;2023-03-23T03:32:06;3.38;;;2.47;;
45784;SDS011;31489;51.404;5.474;2023-03-23T03:34:36;3.03;;;2.35;;
45784;SDS011;31489;51.404;5.474;2023-03-23T03:37:02;3.80;;;2.70;;
45784;SDS011;31489;51.404;5.474;2023-03-23T03:39:30;3.47;;;2.58;;
45784;SDS011;31489;51.404;5.474;2023-03-23T03:42:01;3.72;;;2.33;;
45784;SDS011;31489;51.404;5.474;2023-03-23T03:44:26;2.83;;;2.35;;
45784;SDS011;31489;51.404;5.474;2023-03-23T03:46:52;3.65;;;2.50;;
45784;SDS011;31489;51.404;5.474;2023-03-23T03:49:18;3.70;;;2.20;;
45784;SDS011;31489;51.404;5.474;2023-03-23T03:51:44;5.03;;;2.08;;
45784;SDS011;31489;51.404;5.474;2023-03-23T03:54:10;4.57;;;2.35;;
45784;SDS011;31489;51.404;5.474;2023-03-23T03:56:35;3.92;;;2.20;;
45784;SDS011;31489;51.404;5.474;2023-03-23T03:59:05;3.20;;;2.00;;
45784;SDS011;31489;51.404;5.474;2023-03-23T04:01:33;3.30;;;2.10;;
45784;SDS011;31489;51.404;5.474;2023-03-23T04:03:59;3.72;;;2.10;;
45784;SDS011;31489;51.404;5.474;2023-03-23T04:06:25;5.18;;;2.35;;
45784;SDS011;31489;51.404;5.474;2023-03-23T04:08:53;6.00;;;2.03;;
45784;SDS011;31489;51.404;5.474;2023-03-23T04:11:20;8.48;;;2.30;;
45784;SDS011;31489;51.404;5.474;2023-03-23T04:13:46;4.85;;;1.95;;
45784;SDS011;31489;51.404;5.474;2023-03-23T04:16:11;4.85;;;1.85;;
45784;SDS011;31489;51.404;5.474;2023-03-23T04:18:37;3.90;;;1.70;;
45784;SDS011;31489;51.404;5.474;2023-03-23T04:21:03;6.00;;;1.77;;
45784;SDS011;31489;51.404;5.474;2023-03-23T04:23:32;4.47;;;1.80;;
45784;SDS011;31489;51.404;5.474;2023-03-23T04:25:59;6.45;;;2.10;;
45784;SDS011;31489;51.404;5.474;2023-03-23T04:28:26;3.60;;;1.52;;
45784;SDS011;31489;51.404;5.474;2023-03-23T04:30:52;5.03;;;1.95;;
45784;SDS011;31489;51.404;5.474;2023-03-23T04:33:19;3.88;;;1.70;;
45784;SDS011;31489;51.404;5.474;2023-03-23T04:35:50;5.72;;;1.75;;
45784;SDS011;31489;51.404;5.474;2023-03-23T04:38:17;5.90;;;1.85;;
45784;SDS011;31489;51.404;5.474;2023-03-23T04:40:48;6.75;;;2.15;;
45784;SDS011;31489;51.404;5.474;2023-03-23T04:43:19;5.53;;;2.00;;
45784;SDS011;31489;51.404;5.474;2023-03-23T04:45:46;7.82;;;1.90;;
45784;SDS011;31489;51.404;5.474;2023-03-23T04:48:26;5.18;;;1.77;;
45784;SDS011;31489;51.404;5.474;2023-03-23T04:50:53;10.27;;;2.17;;
45784;SDS011;31489;51.404;5.474;2023-03-23T04:53:19;5.70;;;1.77;;
45784;SDS011;31489;51.404;5.474;2023-03-23T04:55:46;4.53;;;1.92;;
45784;SDS011;31489;51.404;5.474;2023-03-23T04:58:12;8.30;;;2.22;;
45784;SDS011;31489;51.404;5.474;2023-03-23T05:00:39;6.82;;;1.90;;
45784;SDS011;31489;51.404;5.474;2023-03-23T05:03:08;6.50;;;1.70;;
45784;SDS011;31489;51.404;5.474;2023-03-23T05:05:41;3.45;;;1.60;;
45784;SDS011;31489;51.404;5.474;2023-03-23T05:08:07;5.28;;;1.95;;
45784;SDS011;31489;51.404;5.474;2023-03-23T05:10:33;6.00;;;2.00;;
45784;SDS011;31489;51.404;5.474;2023-03-23T05:12:58;4.40;;;1.60;;
45784;SDS011;31489;51.404;5.474;2023-03-23T05:15:24;4.40;;;1.90;;
45784;SDS011;31489;51.404;5.474;2023-03-23T05:17:53;5.40;;;1.85;;
45784;SDS011;31489;51.404;5.474;2023-03-23T05:20:20;6.20;;;1.95;;
45784;SDS011;31489;51.404;5.474;2023-03-23T05:22:47;5.82;;;1.95;;
45784;SDS011;31489;51.404;5.474;2023-03-23T05:25:14;5.75;;;2.10;;
45784;SDS011;31489;51.404;5.474;2023-03-23T05:27:44;4.05;;;1.70;;
45784;SDS011;31489;51.404;5.474;2023-03-23T05:30:13;5.10;;;1.92;;
45784;SDS011;31489;51.404;5.474;2023-03-23T05:32:41;3.85;;;2.20;;
45784;SDS011;31489;51.404;5.474;2023-03-23T05:35:10;4.10;;;2.45;;
45784;SDS011;31489;51.404;5.474;2023-03-23T05:37:37;6.55;;;2.20;;
45784;SDS011;31489;51.404;5.474;2023-03-23T05:40:04;6.70;;;2.20;;
45784;SDS011;31489;51.404;5.474;2023-03-23T05:42:34;5.97;;;2.45;;
45784;SDS011;31489;51.404;5.474;2023-03-23T05:45:01;5.65;;;2.30;;
45784;SDS011;31489;51.404;5.474;2023-03-23T05:47:30;5.03;;;2.22;;
45784;SDS011;31489;51.404;5.474;2023-03-23T05:49:56;6.70;;;2.40;;
45784;SDS011;31489;51.404;5.474;2023-03-23T05:52:22;6.22;;;2.25;;
45784;SDS011;31489;51.404;5.474;2023-03-23T05:54:49;7.28;;;2.10;;
45784;SDS011;31489;51.404;5.474;2023-03-23T05:57:15;4.82;;;1.95;;
45784;SDS011;31489;51.404;5.474;2023-03-23T05:59:40;4.97;;;1.88;;
45784;SDS011;31489;51.404;5.474;2023-03-23T06:02:07;7.25;;;2.28;;
45784;SDS011;31489;51.404;5.474;2023-03-23T06:04:32;5.78;;;2.08;;
45784;SDS011;31489;51.404;5.474;2023-03-23T06:06:59;9.00;;;2.90;;
45784;SDS011;31489;51.404;5.474;2023-03-23T06:09:26;6.47;;;2.40;;
45784;SDS011;31489;51.404;5.474;2023-03-23T06:11:51;7.40;;;2.15;;
45784;SDS011;31489;51.404;5.474;2023-03-23T06:14:17;7.55;;;2.22;;
45784;SDS011;31489;51.404;5.474;2023-03-23T06:16:43;8.65;;;2.25;;
45784;SDS011;31489;51.404;5.474;2023-03-23T06:19:08;5.50;;;1.83;;
45784;SDS011;31489;51.404;5.474;2023-03-23T06:21:36;8.80;;;2.30;;
45784;SDS011;31489;51.404;5.474;2023-03-23T06:24:02;6.82;;;2.00;;
45784;SDS011;31489;51.404;5.474;2023-03-23T06:26:38;9.10;;;2.33;;
45784;SDS011;31489;51.404;5.474;2023-03-23T06:29:06;6.95;;;1.98;;
45784;SDS011;31489;51.404;5.474;2023-03-23T06:31:37;4.90;;;1.90;;
45784;SDS011;31489;51.404;5.474;2023-03-23T06:34:05;7.30;;;2.35;;
45784;SDS011;31489;51.404;5.474;2023-03-23T06:36:31;8.10;;;2.08;;
45784;SDS011;31489;51.404;5.474;2023-03-23T06:38:57;6.65;;;1.95;;
45784;SDS011;31489;51.404;5.474;2023-03-23T06:41:22;5.13;;;1.80;;
45784;SDS011;31489;51.404;5.474;2023-03-23T06:43:48;5.25;;;1.60;;
45784;SDS011;31489;51.404;5.474;2023-03-23T06:46:14;7.88;;;2.33;;
45784;SDS011;31489;51.404;5.474;2023-03-23T06:48:39;4.85;;;1.98;;
45784;SDS011;31489;51.404;5.474;2023-03-23T06:51:06;7.55;;;2.45;;
45784;SDS011;31489;51.404;5.474;2023-03-23T06:53:32;6.78;;;1.85;;
45784;SDS011;31489;51.404;5.474;2023-03-23T06:55:58;6.13;;;1.80;;
45784;SDS011;31489;51.404;5.474;2023-03-23T06:58:23;6.43;;;1.73;;
45784;SDS011;31489;51.404;5.474;2023-03-23T07:00:58;5.85;;;1.73;;
45784;SDS011;31489;51.404;5.474;2023-03-23T07:03:24;5.53;;;2.20;;
45784;SDS011;31489;51.404;5.474;2023-03-23T07:05:51;4.80;;;1.85;;
45784;SDS011;31489;51.404;5.474;2023-03-23T07:08:16;2.78;;;1.30;;
45784;SDS011;31489;51.404;5.474;2023-03-23T07:10:42;3.28;;;1.50;;
45784;SDS011;31489;51.404;5.474;2023-03-23T07:13:08;6.40;;;2.33;;
45784;SDS011;31489;51.404;5.474;2023-03-23T07:15:35;3.65;;;1.85;;
45784;SDS011;31489;51.404;5.474;2023-03-23T07:18:02;5.40;;;2.08;;
45784;SDS011;31489;51.404;5.474;2023-03-23T07:20:27;5.07;;;2.08;;
45784;SDS011;31489;51.404;5.474;2023-03-23T07:22:53;10.95;;;2.67;;
45784;SDS011;31489;51.404;5.474;2023-03-23T07:25:19;7.57;;;2.45;;
45784;SDS011;31489;51.404;5.474;2023-03-23T07:27:45;5.63;;;2.45;;
45784;SDS011;31489;51.404;5.474;2023-03-23T07:30:11;8.85;;;2.53;;
45784;SDS011;31489;51.404;5.474;2023-03-23T07:32:41;5.45;;;2.30;;
45784;SDS011;31489;51.404;5.474;2023-03-23T07:35:07;7.10;;;2.80;;
45784;SDS011;31489;51.404;5.474;2023-03-23T07:37:34;7.30;;;2.45;;
45784;SDS011;31489;51.404;5.474;2023-03-23T07:40:00;5.78;;;1.92;;
45784;SDS011;31489;51.404;5.474;2023-03-23T07:42:33;7.78;;;2.13;;
45784;SDS011;31489;51.404;5.474;2023-03-23T07:44:58;4.35;;;1.75;;
45784;SDS011;31489;51.404;5.474;2023-03-23T07:47:24;7.53;;;2.30;;
45784;SDS011;31489;51.404;5.474;2023-03-23T07:49:51;4.38;;;1.63;;
45784;SDS011;31489;51.404;5.474;2023-03-23T07:52:16;2.55;;;1.10;;
45784;SDS011;31489;51.404;5.474;2023-03-23T07:54:42;2.63;;;1.08;;
45784;SDS011;31489;51.404;5.474;2023-03-23T07:57:08;2.45;;;1.00;;
45784;SDS011;31489;51.404;5.474;2023-03-23T07:59:33;2.63;;;1.00;;
45784;SDS011;31489;51.404;5.474;2023-03-23T08:02:00;1.48;;;1.00;;
45784;SDS011;31489;51.404;5.474;2023-03-23T08:04:26;3.22;;;1.00;;
45784;SDS011;31489;51.404;5.474;2023-03-23T08:06:52;3.17;;;0.93;;
45784;SDS011;31489;51.404;5.474;2023-03-23T08:09:17;3.80;;;1.08;;
45784;SDS011;31489;51.404;5.474;2023-03-23T08:11:43;2.92;;;0.95;;
45784;SDS011;31489;51.404;5.474;2023-03-23T08:14:09;2.75;;;1.10;;
45784;SDS011;31489;51.404;5.474;2023-03-23T08:16:34;4.25;;;0.90;;
45784;SDS011;31489;51.404;5.474;2023-03-23T08:19:00;2.15;;;0.90;;
45784;SDS011;31489;51.404;5.474;2023-03-23T08:21:27;4.68;;;1.08;;
45784;SDS011;31489;51.404;5.474;2023-03-23T08:23:53;2.33;;;1.20;;
45784;SDS011;31489;51.404;5.474;2023-03-23T08:26:19;4.03;;;1.25;;
45784;SDS011;31489;51.404;5.474;2023-03-23T08:28:46;2.90;;;1.00;;
45784;SDS011;31489;51.404;5.474;2023-03-23T08:31:12;5.15;;;1.25;;
45784;SDS011;31489;51.404;5.474;2023-03-23T08:33:39;3.03;;;1.23;;
45784;SDS011;31489;51.404;5.474;2023-03-23T08:36:07;3.30;;;1.08;;
45784;SDS011;31489;51.404;5.474;2023-03-23T08:38:34;3.05;;;1.40;;
45784;SDS011;31489;51.404;5.474;2023-03-23T08:41:02;3.88;;;1.35;;
45784;SDS011;31489;51.404;5.474;2023-03-23T08:43:29;4.18;;;1.35;;
45784;SDS011;31489;51.404;5.474;2023-03-23T08:45:57;3.22;;;1.40;;
45784;SDS011;31489;51.404;5.474;2023-03-23T08:48:22;3.30;;;1.45;;
45784;SDS011;31489;51.404;5.474;2023-03-23T08:50:49;2.65;;;0.93;;
45784;SDS011;31489;51.404;5.474;2023-03-23T08:53:15;3.78;;;1.50;;
45784;SDS011;31489;51.404;5.474;2023-03-23T08:55:40;4.07;;;1.00;;
45784;SDS011;31489;51.404;5.474;2023-03-23T08:58:07;2.20;;;0.75;;
45784;SDS011;31489;51.404;5.474;2023-03-23T09:00:34;2.65;;;1.40;;
45784;SDS011;31489;51.404;5.474;2023-03-23T09:03:00;2.38;;;1.00;;
45784;SDS011;31489;51.404;5.474;2023-03-23T09:05:26;1.17;;;0.70;;
45784;SDS011;31489;51.404;5.474;2023-03-23T09:07:54;1.95;;;0.93;;
45784;SDS011;31489;51.404;5.474;2023-03-23T09:10:23;2.53;;;0.85;;
45784;SDS011;31489;51.404;5.474;2023-03-23T09:12:49;3.10;;;0.90;;
45784;SDS011;31489;51.404;5.474;2023-03-23T09:15:16;2.92;;;1.08;;
45784;SDS011;31489;51.404;5.474;2023-03-23T09:17:46;2.13;;;0.90;;
45784;SDS011;31489;51.404;5.474;2023-03-23T09:20:18;3.10;;;1.17;;
45784;SDS011;31489;51.404;5.474;2023-03-23T09:22:47;2.85;;;1.00;;
45784;SDS011;31489;51.404;5.474;2023-03-23T09:25:16;2.70;;;1.33;;
45784;SDS011;31489;51.404;5.474;2023-03-23T09:27:45;3.78;;;1.17;;
45784;SDS011;31489;51.404;5.474;2023-03-23T09:30:16;3.75;;;1.38;;
45784;SDS011;31489;51.404;5.474;2023-03-23T09:32:44;3.75;;;1.17;;
45784;SDS011;31489;51.404;5.474;2023-03-23T09:35:13;2.00;;;1.15;;
45784;SDS011;31489;51.404;5.474;2023-03-23T09:37:41;3.90;;;1.08;;
45784;SDS011;31489;51.404;5.474;2023-03-23T09:40:15;3.75;;;1.25;;
45784;SDS011;31489;51.404;5.474;2023-03-23T09:42:56;2.97;;;1.00;;
45784;SDS011;31489;51.404;5.474;2023-03-23T09:50:21;4.00;;;1.27;;
45784;SDS011;31489;51.404;5.474;2023-03-23T09:52:58;2.30;;;1.00;;
45784;SDS011;31489;51.404;5.474;2023-03-23T09:55:33;1.80;;;0.93;;
45784;SDS011;31489;51.404;5.474;2023-03-23T09:58:17;3.95;;;1.33;;
45784;SDS011;31489;51.404;5.474;2023-03-23T10:00:56;3.17;;;1.23;;
45784;SDS011;31489;51.404;5.474;2023-03-23T10:03:42;3.03;;;1.02;;
45784;SDS011;31489;51.404;5.474;2023-03-23T10:06:10;1.38;;;0.98;;
45784;SDS011;31489;51.404;5.474;2023-03-23T10:08:50;3.22;;;1.08;;
45784;SDS011;31489;51.404;5.474;2023-03-23T10:11:22;3.45;;;1.10;;
45784;SDS011;31489;51.404;5.474;2023-03-23T10:16:31;4.15;;;1.27;;
45784;SDS011;31489;51.404;5.474;2023-03-23T10:21:25;4.18;;;1.70;;
45784;SDS011;31489;51.404;5.474;2023-03-23T10:24:03;4.05;;;1.60;;
45784;SDS011;31489;51.404;5.474;2023-03-23T10:29:36;3.97;;;1.63;;
45784;SDS011;31489;51.404;5.474;2023-03-23T10:32:14;5.57;;;1.70;;
45784;SDS011;31489;51.404;5.474;2023-03-23T10:37:28;3.30;;;1.50;;
45784;SDS011;31489;51.404;5.474;2023-03-23T10:39:57;5.65;;;1.75;;
45784;SDS011;31489;51.404;5.474;2023-03-23T10:42:35;4.15;;;1.77;;
45784;SDS011;31489;51.404;5.474;2023-03-23T10:47:46;3.40;;;1.60;;
45784;SDS011;31489;51.404;5.474;2023-03-23T10:50:26;6.00;;;1.98;;
45784;SDS011;31489;51.404;5.474;2023-03-23T10:52:55;4.57;;;1.80;;
45784;SDS011;31489;51.404;5.474;2023-03-23T10:55:23;3.75;;;1.52;;
45784;SDS011;31489;51.404;5.474;2023-03-23T10:58:00;3.90;;;1.25;;
45784;SDS011;31489;51.404;5.474;2023-03-23T11:00:28;5.00;;;1.58;;
45784;SDS011;31489;51.404;5.474;2023-03-23T11:03:03;5.20;;;1.50;;
45784;SDS011;31489;51.404;5.474;2023-03-23T11:05:36;3.20;;;1.25;;
45784;SDS011;31489;51.404;5.474;2023-03-23T11:08:09;4.30;;;1.25;;
45784;SDS011;31489;51.404;5.474;2023-03-23T11:10:39;3.80;;;1.20;;
45784;SDS011;31489;51.404;5.474;2023-03-23T11:13:14;6.25;;;1.45;;
45784;SDS011;31489;51.404;5.474;2023-03-23T11:15:41;2.80;;;1.27;;
45784;SDS011;31489;51.404;5.474;2023-03-23T11:18:12;1.98;;;1.00;;
45784;SDS011;31489;51.404;5.474;2023-03-23T11:20:44;3.80;;;1.20;;
45784;SDS011;31489;51.404;5.474;2023-03-23T11:23:23;2.35;;;1.30;;
45784;SDS011;31489;51.404;5.474;2023-03-23T11:28:17;2.72;;;1.30;;
45784;SDS011;31489;51.404;5.474;2023-03-23T11:30:44;3.20;;;1.15;;
45784;SDS011;31489;51.404;5.474;2023-03-23T11:33:10;2.13;;;1.05;;
45784;SDS011;31489;51.404;5.474;2023-03-23T11:35:37;3.28;;;1.40;;
45784;SDS011;31489;51.404;5.474;2023-03-23T11:38:02;3.88;;;1.20;;
45784;SDS011;31489;51.404;5.474;2023-03-23T11:40:31;5.47;;;2.22;;
45784;SDS011;31489;51.404;5.474;2023-03-23T11:43:06;4.38;;;1.55;;
45784;SDS011;31489;51.404;5.474;2023-03-23T11:45:35;2.67;;;1.20;;
45784;SDS011;31489;51.404;5.474;2023-03-23T11:48:18;3.38;;;1.08;;
45784;SDS011;31489;51.404;5.474;2023-03-23T11:53:45;5.22;;;1.73;;
45784;SDS011;31489;51.404;5.474;2023-03-23T11:59:01;5.38;;;1.80;;
45784;SDS011;31489;51.404;5.474;2023-03-23T12:12:25;3.78;;;1.60;;
45784;SDS011;31489;51.404;5.474;2023-03-23T12:31:40;6.88;;;1.83;;
45784;SDS011;31489;51.404;5.474;2023-03-23T12:37:04;4.63;;;1.77;;
45784;SDS011;31489;51.404;5.474;2023-03-23T12:42:48;4.82;;;1.90;;
45784;SDS011;31489;51.404;5.474;2023-03-23T12:45:22;7.63;;;2.13;;
45784;SDS011;31489;51.404;5.474;2023-03-23T12:48:15;4.80;;;1.98;;
45784;SDS011;31489;51.404;5.474;2023-03-23T12:53:28;5.03;;;1.95;;
45784;SDS011;31489;51.404;5.474;2023-03-23T12:56:12;5.22;;;2.00;;
45784;SDS011;31489;51.404;5.474;2023-03-23T12:59:04;6.22;;;2.20;;
45784;SDS011;31489;51.404;5.474;2023-03-23T13:01:48;5.45;;;1.95;;
45784;SDS011;31489;51.404;5.474;2023-03-23T13:04:27;5.90;;;2.20;;
45784;SDS011;31489;51.404;5.474;2023-03-23T13:07:02;10.10;;;2.50;;
45784;SDS011;31489;51.404;5.474;2023-03-23T13:09:39;7.03;;;2.03;;
45784;SDS011;31489;51.404;5.474;2023-03-23T13:12:13;6.65;;;2.08;;
45784;SDS011;31489;51.404;5.474;2023-03-23T13:20:18;5.20;;;2.00;;
45784;SDS011;31489;51.404;5.474;2023-03-23T13:28:03;6.32;;;2.20;;
45784;SDS011;31489;51.404;5.474;2023-03-23T13:30:29;6.93;;;2.13;;
45784;SDS011;31489;51.404;5.474;2023-03-23T13:33:02;7.28;;;2.17;;
45784;SDS011;31489;51.404;5.474;2023-03-23T13:35:35;5.20;;;2.00;;
45784;SDS011;31489;51.404;5.474;2023-03-23T13:38:10;6.53;;;2.42;;
45784;SDS011;31489;51.404;5.474;2023-03-23T13:40:49;8.18;;;2.45;;
45784;SDS011;31489;51.404;5.474;2023-03-23T13:43:30;5.72;;;2.13;;
45784;SDS011;31489;51.404;5.474;2023-03-23T13:46:08;5.43;;;2.50;;
45784;SDS011;31489;51.404;5.474;2023-03-23T13:48:46;6.90;;;2.75;;
45784;SDS011;31489;51.404;5.474;2023-03-23T13:51:47;6.35;;;2.55;;
45784;SDS011;31489;51.404;5.474;2023-03-23T13:56:55;6.45;;;2.33;;
45784;SDS011;31489;51.404;5.474;2023-03-23T14:01:51;5.57;;;2.47;;
45784;SDS011;31489;51.404;5.474;2023-03-23T14:04:18;4.60;;;1.88;;
45784;SDS011;31489;51.404;5.474;2023-03-23T14:06:46;5.97;;;2.20;;
45784;SDS011;31489;51.404;5.474;2023-03-23T14:09:15;6.68;;;1.80;;
45784;SDS011;31489;51.404;5.474;2023-03-23T14:11:57;3.33;;;1.33;;
45784;SDS011;31489;51.404;5.474;2023-03-23T14:14:38;5.13;;;1.80;;
45784;SDS011;31489;51.404;5.474;2023-03-23T14:17:07;6.20;;;1.95;;
45784;SDS011;31489;51.404;5.474;2023-03-23T14:19:41;7.60;;;2.00;;
45784;SDS011;31489;51.404;5.474;2023-03-23T14:22:17;5.95;;;1.73;;
45784;SDS011;31489;51.404;5.474;2023-03-23T14:24:44;7.45;;;2.17;;
45784;SDS011;31489;51.404;5.474;2023-03-23T14:27:12;7.18;;;2.13;;
45784;SDS011;31489;51.404;5.474;2023-03-23T14:29:40;5.93;;;2.08;;
45784;SDS011;31489;51.404;5.474;2023-03-23T14:32:06;9.45;;;2.08;;
45784;SDS011;31489;51.404;5.474;2023-03-23T14:34:36;5.85;;;2.25;;
45784;SDS011;31489;51.404;5.474;2023-03-23T14:37:02;7.75;;;2.30;;
45784;SDS011;31489;51.404;5.474;2023-03-23T14:39:30;7.35;;;2.40;;
45784;SDS011;31489;51.404;5.474;2023-03-23T14:42:01;8.60;;;2.28;;
45784;SDS011;31489;51.404;5.474;2023-03-23T14:44:31;7.50;;;2.42;;
45784;SDS011;31489;51.404;5.474;2023-03-23T14:47:01;7.80;;;2.83;;
45784;SDS011;31489;51.404;5.474;2023-03-23T14:49:30;7.80;;;2.33;;
45784;SDS011;31489;51.404;5.474;2023-03-23T14:52:03;5.10;;;2.08;;
45784;SDS011;31489;51.404;5.474;2023-03-23T14:54:37;7.05;;;2.50;;
45784;SDS011;31489;51.404;5.474;2023-03-23T14:57:14;10.13;;;2.90;;
45784;SDS011;31489;51.404;5.474;2023-03-23T14:59:49;6.70;;;2.35;;
45784;SDS011;31489;51.404;5.474;2023-03-23T15:02:21;7.22;;;2.33;;
45784;SDS011;31489;51.404;5.474;2023-03-23T15:04:53;9.55;;;2.45;;
45784;SDS011;31489;51.404;5.474;2023-03-23T15:07:34;7.13;;;2.33;;
45784;SDS011;31489;51.404;5.474;2023-03-23T15:10:05;6.70;;;2.33;;
45784;SDS011;31489;51.404;5.474;2023-03-23T15:12:32;9.45;;;2.20;;
45784;SDS011;31489;51.404;5.474;2023-03-23T15:15:04;5.38;;;2.40;;
45784;SDS011;31489;51.404;5.474;2023-03-23T15:17:34;8.10;;;2.17;;
45784;SDS011;31489;51.404;5.474;2023-03-23T15:20:08;7.72;;;2.50;;
45784;SDS011;31489;51.404;5.474;2023-03-23T15:22:36;6.93;;;2.17;;
45784;SDS011;31489;51.404;5.474;2023-03-23T15:25:12;10.63;;;2.45;;
45784;SDS011;31489;51.404;5.474;2023-03-23T15:27:49;7.82;;;2.38;;
45784;SDS011;31489;51.404;5.474;2023-03-23T15:32:51;10.50;;;2.70;;
45784;SDS011;31489;51.404;5.474;2023-03-23T15:35:20;9.98;;;2.78;;
45784;SDS011;31489;51.404;5.474;2023-03-23T15:37:49;12.80;;;2.92;;
45784;SDS011;31489;51.404;5.474;2023-03-23T15:40:38;6.13;;;2.45;;
45784;SDS011;31489;51.404;5.474;2023-03-23T15:43:25;7.35;;;2.40;;
45784;SDS011;31489;51.404;5.474;2023-03-23T15:50:58;7.40;;;1.98;;
45784;SDS011;31489;51.404;5.474;2023-03-23T15:55:55;8.73;;;2.90;;
45784;SDS011;31489;51.404;5.474;2023-03-23T15:58:23;7.82;;;2.22;;
45784;SDS011;31489;51.404;5.474;2023-03-23T16:00:49;8.82;;;2.22;;
45784;SDS011;31489;51.404;5.474;2023-03-23T16:03:23;9.07;;;2.35;;
45784;SDS011;31489;51.404;5.474;2023-03-23T16:05:52;7.13;;;2.85;;
45784;SDS011;31489;51.404;5.474;2023-03-23T16:08:21;9.98;;;2.97;;
45784;SDS011;31489;51.404;5.474;2023-03-23T16:10:47;7.40;;;2.30;;
45784;SDS011;31489;51.404;5.474;2023-03-23T16:13:13;8.15;;;3.03;;
45784;SDS011;31489;51.404;5.474;2023-03-23T16:15:39;8.88;;;2.65;;
45784;SDS011;31489;51.404;5.474;2023-03-23T16:18:05;9.32;;;2.22;;
45784;SDS011;31489;51.404;5.474;2023-03-23T16:20:30;7.78;;;2.60;;
45784;SDS011;31489;51.404;5.474;2023-03-23T16:22:57;6.15;;;2.40;;
45784;SDS011;31489;51.404;5.474;2023-03-23T16:25:23;7.35;;;2.55;;
45784;SDS011;31489;51.404;5.474;2023-03-23T16:27:49;7.38;;;2.75;;
45784;SDS011;31489;51.404;5.474;2023-03-23T16:30:19;7.78;;;3.05;;
45784;SDS011;31489;51.404;5.474;2023-03-23T16:32:49;6.95;;;2.60;;
45784;SDS011;31489;51.404;5.474;2023-03-23T16:35:15;7.78;;;3.00;;
45784;SDS011;31489;51.404;5.474;2023-03-23T16:37:51;8.70;;;2.40;;
45784;SDS011;31489;51.404;5.474;2023-03-23T16:40:18;8.52;;;2.75;;
45784;SDS011;31489;51.404;5.474;2023-03-23T16:42:45;11.02;;;3.40;;
45784;SDS011;31489;51.404;5.474;2023-03-23T16:45:12;6.13;;;2.42;;
45784;SDS011;31489;51.404;5.474;2023-03-23T16:47:38;12.02;;;3.30;;
45784;SDS011;31489;51.404;5.474;2023-03-23T16:50:06;7.30;;;2.65;;
45784;SDS011;31489;51.404;5.474;2023-03-23T16:52:35;6.25;;;2.75;;
45784;SDS011;31489;51.404;5.474;2023-03-23T16:55:05;7.57;;;3.05;;